Time;durP1;ratioP1;P1;durP2;ratioP2;P2;SDS_P1;SDS_P2;PMS_P1;PMS_P2;Temp;Humidity;BMP_temperature;BMP_pressure;BME280_temperature;BME280_humidity;BME280_pressure;Samples;Min_cycle;Max_cycle;Signal;HPM_P1;HPM_P2
2022/03/18 00:00:54;;;;;;;5.22;3.10;;;20.20;84.80;;;;;;4225364;28;20222;-73
2022/03/18 00:02:56;;;;;;;4.93;3.00;;;20.20;84.70;;;;;;4224541;28;20230;-73
2022/03/18 00:04:59;;;;;;;5.18;3.28;;;20.20;85.00;;;;;;4222654;28;20222;-73
2022/03/18 00:07:01;;;;;;;6.03;3.17;;;20.10;84.60;;;;;;4227212;28;20271;-73
2022/03/18 00:09:03;;;;;;;5.15;3.13;;;20.20;85.00;;;;;;4227572;28;20217;-73
2022/03/18 00:11:06;;;;;;;5.95;3.03;;;20.20;85.00;;;;;;4227190;28;20267;-73
2022/03/18 00:13:09;;;;;;;4.63;3.10;;;20.20;84.90;;;;;;4227596;28;20213;-73
2022/03/18 00:15:14;;;;;;;5.93;3.00;;;20.20;84.80;;;;;;4227200;28;20742;-73
2022/03/18 00:17:17;;;;;;;6.97;3.60;;;20.20;84.90;;;;;;4224392;28;20625;-73
2022/03/18 00:19:19;;;;;;;4.72;2.80;;;20.20;85.00;;;;;;4226036;28;20952;-73
2022/03/18 00:21:23;;;;;;;6.38;3.33;;;20.20;84.90;;;;;;4213908;28;20210;-73
2022/03/18 00:23:25;;;;;;;4.85;2.83;;;20.10;84.70;;;;;;4211960;28;20210;-73
2022/03/18 00:25:29;;;;;;;5.57;3.10;;;20.10;84.50;;;;;;4224884;28;20561;-73
2022/03/18 00:27:32;;;;;;;7.82;3.33;;;20.10;84.70;;;;;;4225217;28;20867;-73
2022/03/18 00:29:34;;;;;;;6.78;3.40;;;20.10;84.70;;;;;;4226457;28;20618;-73
2022/03/18 00:31:38;;;;;;;4.93;3.45;;;20.10;84.70;;;;;;4226783;28;20658;-73
2022/03/18 00:33:40;;;;;;;4.90;3.47;;;20.10;84.60;;;;;;4223858;28;20214;-73
2022/03/18 00:35:42;;;;;;;4.70;3.20;;;20.10;84.60;;;;;;4225887;28;20214;-73
2022/03/18 00:37:44;;;;;;;6.20;3.60;;;20.10;84.80;;;;;;4219402;28;20267;-73
2022/03/18 00:39:47;;;;;;;7.55;3.38;;;20.10;84.70;;;;;;4226723;28;20209;-73
2022/03/18 00:41:49;;;;;;;5.50;3.13;;;20.10;84.80;;;;;;4226545;28;20271;-73
2022/03/18 00:43:52;;;;;;;6.28;3.30;;;20.00;84.70;;;;;;4224808;28;20217;-73
2022/03/18 00:45:55;;;;;;;6.50;3.58;;;20.10;84.40;;;;;;4225859;28;20622;-73
2022/03/18 00:52:38;;;;;;;7.85;3.20;;;20.00;84.40;;;;;;4225690;28;20202;-73
2022/03/18 00:54:42;;;;;;;6.03;3.63;;;20.00;84.30;;;;;;4214663;28;20697;-73
2022/03/18 00:56:45;;;;;;;10.20;3.45;;;20.00;84.50;;;;;;4224013;28;20205;-73
2022/03/18 00:58:47;;;;;;;6.43;3.35;;;19.90;84.40;;;;;;4221626;28;20209;-73
2022/03/18 01:00:49;;;;;;;5.53;3.03;;;20.00;84.50;;;;;;4226196;28;20338;-73
2022/03/18 01:02:52;;;;;;;5.10;3.30;;;20.00;84.90;;;;;;4226219;28;20241;-73
2022/03/18 01:04:55;;;;;;;5.10;3.45;;;20.00;84.50;;;;;;4225587;28;20267;-74
2022/03/18 01:06:59;;;;;;;7.72;3.58;;;19.90;84.40;;;;;;4225702;28;20264;-74
2022/03/18 01:09:02;;;;;;;7.65;3.78;;;20.00;84.70;;;;;;4224883;28;20734;-74
2022/03/18 01:11:05;;;;;;;7.25;4.07;;;19.90;84.40;;;;;;4209523;28;20226;-74
2022/03/18 01:13:07;;;;;;;7.25;4.00;;;19.90;84.60;;;;;;4212747;28;20272;-74
2022/03/18 01:15:10;;;;;;;8.82;3.80;;;19.90;84.20;;;;;;4216392;28;20234;-73
2022/03/18 01:17:12;;;;;;;5.25;3.42;;;19.90;84.40;;;;;;4227812;28;20283;-73
2022/03/18 01:19:14;;;;;;;5.60;3.30;;;19.90;84.10;;;;;;4227385;28;20217;-73
2022/03/18 01:21:18;;;;;;;7.10;3.30;;;19.90;84.60;;;;;;4227155;28;20267;-73
2022/03/18 01:23:20;;;;;;;9.18;3.72;;;19.90;84.30;;;;;;4226376;28;20221;-74
2022/03/18 01:25:23;;;;;;;7.70;3.55;;;19.90;85.20;;;;;;4227847;28;20214;-73
2022/03/18 01:27:25;;;;;;;5.45;3.58;;;19.80;84.40;;;;;;4227275;28;20267;-73
2022/03/18 01:29:28;;;;;;;6.72;3.65;;;19.90;84.40;;;;;;4226081;28;20956;-73
2022/03/18 01:31:30;;;;;;;5.55;3.47;;;19.90;84.10;;;;;;4223355;28;20222;-73
2022/03/18 01:33:33;;;;;;;6.20;3.80;;;19.90;85.00;;;;;;4222826;28;20267;-73
2022/03/18 01:35:37;;;;;;;7.70;3.72;;;19.80;84.40;;;;;;4225718;28;20210;-73
2022/03/18 01:37:41;;;;;;;6.75;3.80;;;19.80;84.10;;;;;;4215679;28;20325;-73
2022/03/18 01:39:43;;;;;;;8.40;4.05;;;19.80;84.10;;;;;;4224781;28;20217;-73
2022/03/18 01:41:45;;;;;;;5.82;3.63;;;19.80;84.20;;;;;;4227255;28;20657;-73
2022/03/18 01:43:49;;;;;;;6.40;3.40;;;19.80;84.10;;;;;;4227678;28;20738;-73
2022/03/18 01:45:51;;;;;;;7.45;4.30;;;19.80;83.90;;;;;;4227647;28;20209;-73
2022/03/18 01:47:54;;;;;;;8.05;3.85;;;19.80;84.10;;;;;;4226970;28;20243;-73
2022/03/18 01:49:58;;;;;;;9.75;3.25;;;19.80;84.10;;;;;;4227888;28;20217;-73
2022/03/18 01:52:00;;;;;;;6.35;3.58;;;19.80;84.00;;;;;;4226751;28;20251;-73
2022/03/18 01:56:24;;;;;;;7.55;4.15;;;19.80;84.00;;;;;;4230624;28;20198;-73
2022/03/18 01:58:26;;;;;;;6.32;3.70;;;19.80;84.20;;;;;;4229885;28;20584;-73
2022/03/18 02:00:29;;;;;;;5.57;3.70;;;19.80;84.10;;;;;;4230714;28;20218;-73
2022/03/18 02:02:31;;;;;;;8.50;3.92;;;19.80;84.10;;;;;;4230991;28;20225;-73
2022/03/18 02:04:33;;;;;;;6.80;3.45;;;19.70;83.90;;;;;;4230622;28;20226;-73
2022/03/18 02:06:36;;;;;;;7.80;4.03;;;19.70;84.60;;;;;;4231273;28;20234;-73
2022/03/18 02:08:40;;;;;;;5.32;3.45;;;19.70;84.00;;;;;;4230709;28;20205;-73
2022/03/18 02:10:44;;;;;;;5.28;3.42;;;19.80;84.10;;;;;;4231101;28;20214;-73
2022/03/18 02:12:46;;;;;;;5.13;3.95;;;19.70;84.00;;;;;;4230495;28;20205;-73
2022/03/18 02:14:49;;;;;;;6.88;4.05;;;19.80;84.00;;;;;;4229445;28;20265;-73
2022/03/18 02:16:52;;;;;;;7.25;4.00;;;19.70;84.10;;;;;;4229142;28;20230;-73
2022/03/18 02:18:54;;;;;;;5.28;3.53;;;19.70;83.90;;;;;;4230422;28;20243;-73
2022/03/18 02:20:56;;;;;;;6.47;3.95;;;19.70;84.20;;;;;;4230549;28;20217;-73
2022/03/18 02:23:00;;;;;;;6.55;4.05;;;19.70;83.90;;;;;;4229564;28;20233;-73
2022/03/18 02:25:02;;;;;;;6.82;4.13;;;19.70;84.00;;;;;;4229565;28;20293;-73
2022/03/18 02:27:05;;;;;;;6.95;3.80;;;19.70;84.00;;;;;;4228250;28;20210;-73
2022/03/18 02:29:08;;;;;;;7.85;3.97;;;19.60;83.80;;;;;;4230190;28;20213;-73
2022/03/18 02:31:11;;;;;;;7.72;4.07;;;19.70;84.10;;;;;;4228595;28;20274;-73
2022/03/18 02:33:13;;;;;;;4.60;3.72;;;19.70;84.00;;;;;;4230686;28;20218;-73
2022/03/18 02:35:15;;;;;;;9.65;4.32;;;19.60;83.90;;;;;;4230701;28;20259;-73
2022/03/18 02:37:18;;;;;;;6.20;3.97;;;19.70;83.90;;;;;;4229624;28;20642;-73
2022/03/18 02:39:21;;;;;;;6.55;3.90;;;19.60;84.50;;;;;;4230022;28;20639;-73
2022/03/18 02:41:23;;;;;;;4.80;3.45;;;19.70;83.90;;;;;;4227814;28;20270;-73
2022/03/18 02:43:26;;;;;;;8.00;3.80;;;19.70;83.70;;;;;;4225899;28;20283;-73
2022/03/18 02:45:30;;;;;;;6.03;3.70;;;19.60;83.40;;;;;;4230188;28;20666;-73
2022/03/18 02:47:32;;;;;;;7.47;3.80;;;19.60;83.90;;;;;;4229674;28;20222;-73
2022/03/18 02:49:35;;;;;;;6.70;3.83;;;19.60;83.80;;;;;;4230493;28;20278;-73
2022/03/18 02:51:38;;;;;;;7.40;4.32;;;19.60;83.70;;;;;;4228171;28;20617;-73
2022/03/18 02:53:41;;;;;;;6.50;4.40;;;19.50;83.20;;;;;;4228032;28;20251;-73
2022/03/18 02:55:44;;;;;;;6.68;4.05;;;19.50;83.60;;;;;;4228604;28;20222;-73
2022/03/18 02:57:47;;;;;;;8.90;4.28;;;19.60;83.50;;;;;;4229953;28;20240;-73
2022/03/18 02:59:49;;;;;;;8.43;4.20;;;19.60;83.50;;;;;;4225628;28;20255;-73
2022/03/18 03:01:51;;;;;;;7.50;3.80;;;19.60;83.60;;;;;;4230332;28;20947;-73
2022/03/18 03:03:54;;;;;;;8.88;4.43;;;19.60;83.50;;;;;;4229736;28;20295;-73
2022/03/18 03:08:16;;;;;;;6.75;4.22;;;19.50;83.50;;;;;;4229645;28;20604;-73
2022/03/18 03:10:18;;;;;;;6.82;4.25;;;19.50;83.40;;;;;;4227958;28;20213;-73
2022/03/18 03:12:22;;;;;;;6.07;4.20;;;19.50;83.40;;;;;;4228459;28;20213;-73
2022/03/18 03:14:24;;;;;;;6.80;4.38;;;19.50;83.50;;;;;;4229652;28;20719;-73
2022/03/18 03:16:27;;;;;;;6.97;4.15;;;19.50;83.40;;;;;;4228155;28;20209;-74
2022/03/18 03:18:30;;;;;;;8.13;3.97;;;19.50;83.40;;;;;;4229837;28;20250;-73
2022/03/18 03:20:32;;;;;;;6.50;3.83;;;19.50;83.20;;;;;;4229454;28;20210;-73
2022/03/18 03:22:35;;;;;;;8.55;3.92;;;19.40;83.30;;;;;;4229626;28;20256;-73
2022/03/18 03:24:39;;;;;;;7.95;4.07;;;19.50;83.40;;;;;;4223331;28;20292;-73
2022/03/18 03:26:41;;;;;;;8.25;4.03;;;19.50;83.20;;;;;;4225477;28;20210;-73
2022/03/18 03:28:45;;;;;;;8.70;4.55;;;19.50;83.50;;;;;;4229846;28;20662;-73
2022/03/18 03:30:47;;;;;;;4.97;3.97;;;19.50;83.60;;;;;;4229823;28;20239;-73
2022/03/18 03:32:50;;;;;;;8.48;4.13;;;19.50;83.30;;;;;;4228720;28;20642;-73
2022/03/18 03:34:52;;;;;;;6.55;4.07;;;19.40;83.30;;;;;;4229430;28;20206;-73
2022/03/18 03:36:55;;;;;;;8.52;4.35;;;19.40;83.10;;;;;;4228598;28;20221;-73
2022/03/18 03:38:57;;;;;;;7.93;4.65;;;19.40;83.40;;;;;;4229557;28;20237;-73
2022/03/18 03:40:59;;;;;;;8.85;4.30;;;19.40;83.40;;;;;;4229167;28;20262;-73
2022/03/18 03:43:02;;;;;;;7.93;4.40;;;19.40;83.20;;;;;;4229307;28;20218;-73
2022/03/18 03:45:07;;;;;;;5.65;4.10;;;19.40;83.50;;;;;;4220460;28;20287;-73
2022/03/18 03:47:09;;;;;;;7.60;4.13;;;19.40;83.60;;;;;;4224907;28;20266;-73
2022/03/18 03:49:11;;;;;;;7.95;4.20;;;19.40;84.40;;;;;;4222519;28;20631;-73
2022/03/18 03:51:14;;;;;;;5.25;3.83;;;19.40;83.20;;;;;;4227576;28;20225;-73
2022/03/18 03:53:16;;;;;;;9.00;4.47;;;19.40;83.40;;;;;;4228843;28;20682;-73
2022/03/18 03:55:18;;;;;;;6.40;4.50;;;19.40;83.30;;;;;;4228834;28;20564;-73
2022/03/18 03:57:21;;;;;;;7.50;4.20;;;19.40;83.60;;;;;;4229401;28;20205;-73
2022/03/18 03:59:23;;;;;;;6.50;4.13;;;19.40;83.50;;;;;;4229257;28;20263;-73
2022/03/18 04:01:27;;;;;;;6.80;3.85;;;19.30;83.40;;;;;;4228570;28;20221;-73
2022/03/18 04:03:29;;;;;;;8.52;4.30;;;19.30;83.50;;;;;;4229069;28;20210;-73
2022/03/18 04:05:32;;;;;;;8.07;4.50;;;19.30;83.20;;;;;;4228049;28;20259;-73
2022/03/18 04:07:34;;;;;;;8.07;4.32;;;19.30;83.30;;;;;;4229096;28;20235;-73
2022/03/18 04:09:36;;;;;;;7.97;4.35;;;19.30;83.10;;;;;;4229255;28;20214;-73
2022/03/18 04:11:39;;;;;;;9.45;4.57;;;19.30;83.10;;;;;;4226317;28;20682;-73
2022/03/18 04:13:41;;;;;;;5.88;3.40;;;19.30;84.00;;;;;;4228896;28;20217;-73
2022/03/18 04:15:44;;;;;;;6.35;3.88;;;19.30;83.20;;;;;;4228255;28;20225;-73
2022/03/18 04:17:49;;;;;;;8.95;4.38;;;19.30;83.10;;;;;;4228009;28;20213;-73
2022/03/18 04:19:51;;;;;;;8.95;4.03;;;19.30;83.20;;;;;;4227945;28;20678;-73
2022/03/18 04:21:53;;;;;;;7.68;4.40;;;19.30;83.00;;;;;;4228438;28;20244;-73
2022/03/18 04:23:56;;;;;;;5.50;3.60;;;19.30;83.10;;;;;;4228195;28;20750;-73
2022/03/18 04:25:58;;;;;;;6.43;4.05;;;19.30;83.10;;;;;;4228834;28;20634;-73
2022/03/18 04:28:00;;;;;;;5.38;3.90;;;19.30;82.90;;;;;;4228586;28;20214;-73
2022/03/18 04:30:03;;;;;;;7.93;4.55;;;19.20;82.80;;;;;;4225640;28;20210;-73
2022/03/18 04:32:06;;;;;;;8.45;3.88;;;19.30;83.10;;;;;;4225184;28;20214;-73
2022/03/18 04:34:11;;;;;;;7.75;4.30;;;19.20;83.20;;;;;;4228417;28;20214;-73
2022/03/18 04:36:13;;;;;;;7.72;4.20;;;19.20;83.20;;;;;;4225854;28;20270;-73
2022/03/18 04:38:16;;;;;;;6.63;3.90;;;19.30;83.20;;;;;;4228051;28;20263;-73
2022/03/18 04:40:18;;;;;;;6.72;4.22;;;19.30;82.90;;;;;;4227006;28;20206;-73
2022/03/18 04:42:21;;;;;;;6.93;4.00;;;19.20;82.90;;;;;;4228729;28;20214;-73
2022/03/18 04:44:23;;;;;;;6.75;4.13;;;19.20;83.30;;;;;;4225899;28;20279;-74
2022/03/18 04:46:28;;;;;;;5.80;4.28;;;19.20;83.60;;;;;;4228494;28;20719;-73
2022/03/18 04:48:30;;;;;;;6.20;4.53;;;19.20;82.90;;;;;;4224410;28;20213;-73
2022/03/18 04:50:34;;;;;;;9.80;4.70;;;19.20;83.00;;;;;;4227386;28;20217;-73
2022/03/18 04:52:37;;;;;;;6.82;4.32;;;19.20;83.10;;;;;;4226813;28;20270;-73
2022/03/18 04:54:39;;;;;;;8.70;4.22;;;19.20;82.90;;;;;;4228144;28;20213;-73
2022/03/18 04:59:01;;;;;;;6.45;4.10;;;19.20;83.20;;;;;;4227844;28;20197;-73
2022/03/18 05:01:03;;;;;;;7.22;4.18;;;19.20;82.90;;;;;;4227876;28;20258;-73
2022/03/18 05:03:06;;;;;;;7.50;4.30;;;19.10;82.90;;;;;;4228287;28;20221;-73
2022/03/18 05:05:10;;;;;;;7.43;4.32;;;19.10;82.70;;;;;;4228551;28;20233;-73
2022/03/18 05:07:13;;;;;;;6.75;4.63;;;19.10;82.90;;;;;;4226961;28;20214;-73
2022/03/18 05:09:16;;;;;;;7.38;4.50;;;19.10;82.80;;;;;;4227936;28;20278;-73
2022/03/18 05:11:18;;;;;;;7.15;4.28;;;19.10;82.90;;;;;;4227670;28;20669;-73
2022/03/18 05:13:20;;;;;;;6.53;3.97;;;19.10;83.10;;;;;;4225172;28;20282;-73
2022/03/18 05:15:23;;;;;;;7.32;4.30;;;19.10;82.80;;;;;;4213871;28;20267;-73
2022/03/18 05:17:26;;;;;;;9.00;4.63;;;19.10;82.90;;;;;;4226380;28;20221;-74
2022/03/18 05:19:28;;;;;;;6.68;4.45;;;19.10;82.80;;;;;;4227933;28;20214;-73
2022/03/18 05:21:30;;;;;;;7.22;4.10;;;19.10;82.80;;;;;;4227793;28;20218;-73
2022/03/18 05:23:34;;;;;;;6.38;3.72;;;19.10;82.90;;;;;;4225752;28;20209;-73
2022/03/18 05:25:36;;;;;;;6.75;4.63;;;19.10;82.80;;;;;;4227375;28;20310;-73
2022/03/18 05:27:40;;;;;;;8.35;3.85;;;19.10;83.00;;;;;;4226845;28;20264;-73
2022/03/18 05:29:42;;;;;;;8.98;4.47;;;19.10;83.30;;;;;;4228075;28;20255;-73
2022/03/18 05:31:46;;;;;;;8.48;4.10;;;19.10;83.20;;;;;;4227314;28;20222;-73
2022/03/18 05:33:48;;;;;;;6.88;4.20;;;19.10;82.70;;;;;;4226578;28;20279;-73
2022/03/18 05:35:51;;;;;;;9.10;4.22;;;19.00;82.80;;;;;;4227924;28;20209;-73
2022/03/18 05:37:53;;;;;;;6.72;4.15;;;19.10;82.90;;;;;;4226265;28;20222;-73
2022/03/18 05:39:56;;;;;;;9.27;4.15;;;19.10;83.10;;;;;;4227944;28;20263;-73
2022/03/18 05:41:59;;;;;;;7.63;4.53;;;19.00;82.80;;;;;;4227879;28;20240;-73
2022/03/18 05:44:01;;;;;;;9.20;4.07;;;19.00;82.80;;;;;;4226598;28;20267;-73
2022/03/18 05:46:04;;;;;;;6.85;4.35;;;19.00;82.70;;;;;;4226759;28;20237;-73
2022/03/18 05:48:07;;;;;;;6.80;4.25;;;19.00;83.50;;;;;;4227758;28;20726;-73
2022/03/18 05:50:15;;;;;;;7.75;4.38;;;19.00;82.70;;;;;;4227141;28;20351;-73
2022/03/18 05:52:17;;;;;;;9.75;4.40;;;19.00;82.80;;;;;;4227466;28;20282;-73
2022/03/18 05:54:19;;;;;;;7.30;4.43;;;19.00;83.10;;;;;;4226995;28;20213;-73
2022/03/18 05:58:44;;;;;;;6.00;3.97;;;19.00;83.20;;;;;;4226799;28;20210;-73
2022/03/18 06:00:48;;;;;;;6.18;3.88;;;19.00;82.60;;;;;;4225703;28;20275;-73
2022/03/18 06:02:51;;;;;;;9.90;4.70;;;19.00;83.50;;;;;;4227528;28;20218;-73
2022/03/18 06:04:53;;;;;;;8.57;4.22;;;19.00;82.90;;;;;;4227049;28;20713;-73
2022/03/18 06:06:55;;;;;;;7.68;4.20;;;19.00;82.90;;;;;;4227338;28;20214;-73
2022/03/18 06:13:38;;;;;;;7.10;3.83;;;19.10;83.30;;;;;;4226166;28;20198;-73
2022/03/18 06:15:41;;;;;;;9.57;4.60;;;19.00;83.70;;;;;;4227492;28;20859;-73
2022/03/18 06:17:43;;;;;;;8.82;4.20;;;19.10;83.70;;;;;;4225822;28;20240;-73
2022/03/18 06:19:45;;;;;;;9.95;4.35;;;19.10;83.90;;;;;;4222458;28;20217;-73
2022/03/18 06:21:48;;;;;;;9.60;4.20;;;19.10;84.00;;;;;;4227389;28;20246;-73
2022/03/18 06:23:50;;;;;;;7.13;4.22;;;19.10;84.10;;;;;;4227653;28;20666;-73
2022/03/18 06:25:53;;;;;;;6.93;4.25;;;19.00;84.20;;;;;;4227291;28;20237;-73
2022/03/18 06:27:55;;;;;;;5.97;3.88;;;19.10;84.20;;;;;;4227032;28;20226;-73
2022/03/18 06:29:59;;;;;;;7.68;4.28;;;19.10;83.90;;;;;;4226504;28;20218;-73
2022/03/18 06:32:01;;;;;;;7.63;4.35;;;19.10;84.10;;;;;;4226853;28;20214;-73
2022/03/18 06:34:04;;;;;;;5.97;3.97;;;19.10;84.10;;;;;;4226832;28;20221;-73
2022/03/18 06:36:06;;;;;;;9.68;4.53;;;19.10;83.90;;;;;;4223773;28;20210;-73
2022/03/18 06:38:09;;;;;;;7.80;4.45;;;19.10;84.10;;;;;;4226538;28;20287;-73
2022/03/18 06:40:12;;;;;;;6.75;4.35;;;19.10;85.00;;;;;;4227543;28;20210;-73
2022/03/18 06:42:14;;;;;;;7.85;4.43;;;19.10;84.20;;;;;;4226443;28;20729;-73
2022/03/18 06:44:16;;;;;;;5.68;4.25;;;19.10;84.10;;;;;;4230455;28;20671;-73
2022/03/18 06:46:20;;;;;;;8.25;5.07;;;19.10;83.90;;;;;;4227944;28;20754;-73
2022/03/18 06:48:23;;;;;;;8.98;4.85;;;19.10;84.40;;;;;;4230183;28;20274;-73
2022/03/18 06:50:25;;;;;;;7.88;4.63;;;19.10;84.20;;;;;;4228702;28;20263;-73
2022/03/18 06:52:28;;;;;;;8.93;4.35;;;19.20;84.30;;;;;;4230016;28;20221;-73
2022/03/18 06:54:30;;;;;;;7.30;4.60;;;19.10;84.00;;;;;;4230299;28;20218;-73
2022/03/18 06:56:33;;;;;;;9.48;4.47;;;19.10;84.30;;;;;;4229523;28;20210;-73
2022/03/18 06:58:36;;;;;;;8.10;4.75;;;19.20;84.20;;;;;;4230182;28;20263;-73
2022/03/18 07:00:39;;;;;;;7.90;4.13;;;19.10;84.20;;;;;;4228779;28;20780;-73
2022/03/18 07:02:42;;;;;;;7.78;4.35;;;19.10;84.70;;;;;;4225884;28;20213;-73
2022/03/18 07:04:45;;;;;;;8.52;4.70;;;19.20;84.20;;;;;;4230379;28;20222;-73
2022/03/18 07:06:47;;;;;;;6.53;4.15;;;19.20;84.40;;;;;;4228864;28;20237;-73
2022/03/18 07:08:50;;;;;;;7.45;4.53;;;19.20;84.40;;;;;;4228765;28;20217;-73
2022/03/18 07:10:52;;;;;;;7.85;4.05;;;19.30;84.50;;;;;;4229960;28;20646;-73
2022/03/18 07:12:55;;;;;;;8.20;4.20;;;19.30;84.60;;;;;;4227933;28;20239;-73
2022/03/18 07:14:57;;;;;;;8.02;4.22;;;19.20;84.40;;;;;;4230061;28;20259;-73
2022/03/18 07:19:21;;;;;;;7.03;4.57;;;19.30;84.50;;;;;;4230302;27;20201;-73
2022/03/18 07:21:23;;;;;;;8.50;4.30;;;19.30;84.80;;;;;;4230360;28;20597;-73
2022/03/18 07:23:25;;;;;;;8.43;4.40;;;19.30;84.50;;;;;;4229601;28;20271;-73
2022/03/18 07:25:28;;;;;;;7.38;4.47;;;19.30;85.00;;;;;;4228981;28;20241;-73
2022/03/18 07:27:30;;;;;;;6.22;4.28;;;19.30;85.10;;;;;;4229893;28;20206;-73
2022/03/18 07:29:32;;;;;;;6.57;4.63;;;19.30;85.10;;;;;;4227148;28;20214;-73
2022/03/18 07:31:35;;;;;;;7.68;4.43;;;19.30;84.90;;;;;;4229777;28;20267;-73
2022/03/18 07:33:37;;;;;;;8.27;4.40;;;19.30;85.00;;;;;;4228814;28;20271;-73
2022/03/18 07:35:42;;;;;;;6.82;4.32;;;19.30;85.50;;;;;;4226821;28;20214;-73
2022/03/18 07:37:46;;;;;;;9.65;4.90;;;19.30;85.10;;;;;;4229709;28;20716;-73
2022/03/18 07:39:48;;;;;;;7.20;4.20;;;19.30;85.40;;;;;;4228232;28;20217;-73
2022/03/18 07:41:50;;;;;;;7.93;4.63;;;19.40;85.40;;;;;;4228740;28;20612;-73
2022/03/18 07:43:52;;;;;;;6.55;3.97;;;19.40;85.20;;;;;;4229653;28;20661;-73
2022/03/18 07:45:55;;;;;;;8.18;4.50;;;19.40;85.60;;;;;;4228185;28;20276;-73
2022/03/18 07:47:59;;;;;;;6.97;4.82;;;19.40;85.20;;;;;;4228095;28;20214;-73
2022/03/18 07:50:01;;;;;;;10.15;4.00;;;19.40;85.10;;;;;;4229158;28;20209;-73
2022/03/18 07:52:06;;;;;;;8.90;4.75;;;19.40;85.30;;;;;;4228202;28;20217;-73
2022/03/18 07:54:08;;;;;;;9.93;4.50;;;19.40;85.40;;;;;;4228913;28;20243;-73
2022/03/18 07:56:10;;;;;;;8.52;4.68;;;19.40;85.40;;;;;;4225825;28;20214;-73
2022/03/18 07:58:13;;;;;;;8.63;4.05;;;19.40;86.40;;;;;;4214093;28;20650;-73
2022/03/18 08:00:17;;;;;;;6.90;3.80;;;19.30;85.70;;;;;;4225247;28;20731;-73
2022/03/18 08:02:20;;;;;;;8.07;4.53;;;19.40;85.50;;;;;;4228957;28;20267;-73
2022/03/18 08:04:22;;;;;;;8.45;4.55;;;19.40;85.70;;;;;;4228666;28;20222;-73
2022/03/18 08:06:24;;;;;;;7.60;4.30;;;19.40;85.80;;;;;;4228673;28;20620;-74
2022/03/18 08:08:28;;;;;;;8.95;4.80;;;19.40;86.30;;;;;;4219040;28;20218;-73
2022/03/18 08:10:31;;;;;;;12.38;5.45;;;19.40;85.50;;;;;;4223546;28;20280;-73
2022/03/18 08:12:34;;;;;;;8.77;5.38;;;19.40;85.00;;;;;;4215723;27;20358;-74
2022/03/18 08:14:36;;;;;;;13.80;5.25;;;19.50;84.90;;;;;;4220769;28;20210;-74
2022/03/18 08:16:39;;;;;;;11.13;5.03;;;19.50;83.60;;;;;;4222105;27;20711;-73
2022/03/18 08:18:41;;;;;;;11.27;4.95;;;19.90;83.30;;;;;;4222186;28;20280;-73
2022/03/18 08:20:44;;;;;;;10.10;5.10;;;20.20;84.20;;;;;;4222394;28;20965;-73
2022/03/18 08:22:47;;;;;;;6.95;4.80;;;20.50;84.00;;;;;;4224617;27;20725;-74
2022/03/18 08:24:52;;;;;;;14.30;5.40;;;20.70;82.70;;;;;;4223009;27;20262;-74
2022/03/18 08:26:54;;;;;;;11.45;5.20;;;20.80;82.30;;;;;;4224328;27;20234;-73
2022/03/18 08:28:57;;;;;;;12.18;5.80;;;20.90;81.90;;;;;;4227796;27;20262;-73
2022/03/18 08:30:59;;;;;;;9.57;4.43;;;21.00;82.00;;;;;;4225924;27;20726;-75
2022/03/18 08:33:02;;;;;;;8.32;5.00;;;21.00;82.00;;;;;;4220089;27;20213;-74
2022/03/18 08:35:05;;;;;;;11.52;4.93;;;21.00;81.60;;;;;;4222697;28;20271;-75
2022/03/18 08:37:11;;;;;;;13.15;5.20;;;21.00;81.40;;;;;;4217618;28;20236;-74
2022/03/18 08:39:13;;;;;;;10.93;4.30;;;21.10;83.40;;;;;;4222725;27;20221;-73
2022/03/18 08:41:17;;;;;;;9.85;4.78;;;21.30;82.70;;;;;;4204609;28;20222;-75
2022/03/18 08:43:19;;;;;;;5.82;4.22;;;21.40;82.80;;;;;;4225814;28;20221;-75
2022/03/18 08:45:22;;;;;;;11.63;4.47;;;21.50;81.60;;;;;;4223350;27;20271;-74
2022/03/18 08:47:25;;;;;;;12.85;4.70;;;21.50;81.90;;;;;;4225406;27;20248;-73
2022/03/18 08:49:27;;;;;;;10.75;4.63;;;21.50;81.40;;;;;;4220182;27;20779;-74
2022/03/18 08:51:30;;;;;;;8.82;4.40;;;21.50;81.90;;;;;;4219382;28;20590;-75
2022/03/18 08:53:32;;;;;;;9.73;4.28;;;21.60;82.00;;;;;;4223528;27;20214;-77
2022/03/18 08:55:34;;;;;;;9.65;4.30;;;21.60;81.80;;;;;;4225466;27;20243;-77
2022/03/18 08:57:38;;;;;;;10.68;4.53;;;21.70;82.30;;;;;;4222874;27;20592;-78
2022/03/18 08:59:40;;;;;;;8.77;4.18;;;21.70;80.50;;;;;;4225552;27;20217;-78
2022/03/18 09:01:43;;;;;;;10.48;3.78;;;21.70;80.50;;;;;;4222946;28;20282;-76
2022/03/18 09:03:47;;;;;;;8.80;4.03;;;21.70;81.70;;;;;;4231804;27;20213;-75
2022/03/18 09:05:49;;;;;;;8.48;3.83;;;21.60;81.20;;;;;;4222685;28;20214;-76
2022/03/18 09:07:51;;;;;;;10.15;4.00;;;21.60;80.90;;;;;;4224773;28;20237;-74
2022/03/18 09:09:54;;;;;;;10.80;3.95;;;21.80;81.40;;;;;;4224277;28;20699;-74
2022/03/18 09:11:56;;;;;;;9.82;3.60;;;21.90;80.50;;;;;;4218711;27;20210;-73
2022/03/18 09:14:00;;;;;;;9.07;3.40;;;22.00;80.40;;;;;;4225264;28;20205;-74
2022/03/18 09:16:03;;;;;;;7.53;4.00;;;22.10;80.40;;;;;;4223336;28;20278;-75
2022/03/18 09:18:05;;;;;;;7.88;3.50;;;22.00;81.10;;;;;;4224402;28;20217;-74
2022/03/18 09:20:08;;;;;;;10.75;3.65;;;22.00;82.70;;;;;;4225160;28;20659;-74
2022/03/18 09:22:11;;;;;;;8.52;3.45;;;22.00;80.90;;;;;;4219836;28;20259;-75
2022/03/18 09:24:13;;;;;;;6.53;3.50;;;21.90;80.90;;;;;;4219000;28;20215;-75
2022/03/18 09:26:15;;;;;;;8.00;3.67;;;22.00;80.80;;;;;;4224143;28;20218;-74
2022/03/18 09:28:18;;;;;;;8.75;3.92;;;22.10;80.40;;;;;;4220211;27;20218;-74
2022/03/18 09:30:22;;;;;;;7.35;3.22;;;22.20;80.50;;;;;;4222686;28;20712;-74
2022/03/18 09:32:24;;;;;;;6.78;3.30;;;22.30;79.60;;;;;;4224930;28;20358;-75
2022/03/18 09:34:26;;;;;;;9.30;3.67;;;22.30;79.60;;;;;;4225742;28;20240;-74
2022/03/18 09:36:29;;;;;;;7.75;3.17;;;22.20;80.20;;;;;;4221681;28;20271;-74
2022/03/18 09:38:31;;;;;;;6.47;3.17;;;22.10;79.80;;;;;;4227063;28;20290;-74
2022/03/18 09:40:34;;;;;;;7.03;3.30;;;22.20;79.30;;;;;;4225268;28;20665;-74
2022/03/18 09:42:53;;;;;;;6.70;3.17;;;22.30;79.40;;;;;;4225892;28;20278;-75
2022/03/18 09:44:56;;;;;;;7.75;3.60;;;22.50;79.70;;;;;;4224819;28;20221;-74
2022/03/18 09:47:01;;;;;;;6.72;3.20;;;22.50;79.10;;;;;;4224138;28;20585;-74
2022/03/18 09:49:06;;;;;;;7.95;3.40;;;22.50;79.20;;;;;;4214013;28;20623;-75
2022/03/18 09:51:09;;;;;;;8.35;3.55;;;22.30;80.00;;;;;;4223647;28;20611;-74
2022/03/18 09:53:11;;;;;;;6.80;3.22;;;22.30;80.60;;;;;;4227351;28;20221;-75
2022/03/18 09:55:14;;;;;;;5.40;3.22;;;22.30;79.90;;;;;;4221348;28;20672;-76
2022/03/18 09:57:17;;;;;;;10.27;3.05;;;22.40;80.00;;;;;;4217566;28;20209;-75
2022/03/18 09:59:21;;;;;;;8.60;2.88;;;22.50;80.00;;;;;;4219607;28;20229;-74
2022/03/18 10:01:24;;;;;;;7.07;3.10;;;22.50;79.30;;;;;;4221232;28;20218;-74
2022/03/18 10:03:38;;;;;;;5.68;3.13;;;22.60;79.40;;;;;;4223745;28;20234;-74
2022/03/18 10:05:49;;;;;;;4.85;3.08;;;22.60;79.00;;;;;;4223993;28;21351;-75
2022/03/18 10:07:54;;;;;;;6.85;2.83;;;22.50;79.40;;;;;;4218645;28;20693;-74
2022/03/18 10:10:10;;;;;;;7.18;3.00;;;22.40;80.70;;;;;;4212244;28;20222;-73
2022/03/18 10:12:29;;;;;;;5.03;2.63;;;22.40;81.30;;;;;;4204075;28;20275;-72
2022/03/18 10:14:31;;;;;;;7.20;2.92;;;22.50;80.00;;;;;;4215391;28;20307;-74
2022/03/18 10:16:36;;;;;;;4.18;2.58;;;22.70;79.80;;;;;;4219217;27;20221;-73
2022/03/18 10:18:49;;;;;;;6.65;2.90;;;22.70;79.70;;;;;;4221522;27;20221;-73
2022/03/18 10:20:51;;;;;;;8.65;3.40;;;22.70;79.40;;;;;;4222932;27;20214;-73
2022/03/18 10:22:56;;;;;;;5.22;2.83;;;22.70;79.70;;;;;;4223258;28;20222;-73
2022/03/18 10:24:58;;;;;;;11.93;2.90;;;22.70;79.60;;;;;;4225902;27;20225;-73
2022/03/18 10:27:12;;;;;;;4.65;2.90;;;22.60;79.80;;;;;;4223677;27;20783;-74
2022/03/18 10:29:15;;;;;;;6.18;3.15;;;22.60;80.00;;;;;;4223239;27;20312;-75
2022/03/18 10:31:19;;;;;;;6.30;2.80;;;22.70;79.40;;;;;;4222343;27;20218;-74
2022/03/18 10:38:44;;;;;;;10.82;2.97;;;22.80;79.10;;;;;;4220330;27;20226;-73
2022/03/18 10:40:50;;;;;;;8.57;3.30;;;22.70;79.60;;;;;;4219379;28;20217;-75
2022/03/18 10:42:57;;;;;;;5.80;2.53;;;22.50;79.00;;;;;;4225210;27;20259;-74
2022/03/18 10:45:02;;;;;;;6.85;2.83;;;22.50;78.50;;;;;;4212909;28;20271;-74
2022/03/18 10:47:05;;;;;;;5.43;2.55;;;22.60;79.00;;;;;;4208731;28;20635;-73
2022/03/18 10:49:10;;;;;;;9.50;3.28;;;22.60;79.50;;;;;;4219387;28;20230;-73
2022/03/18 10:51:12;;;;;;;7.70;2.78;;;22.60;79.40;;;;;;4224514;27;20225;-73
2022/03/18 10:53:14;;;;;;;5.70;2.60;;;22.60;79.10;;;;;;4214993;28;20222;-73
2022/03/18 10:55:19;;;;;;;7.30;2.90;;;22.50;79.80;;;;;;4221085;27;20929;-73
2022/03/18 10:57:21;;;;;;;4.45;2.50;;;22.60;80.50;;;;;;4221251;27;20241;-73
2022/03/18 10:59:26;;;;;;;9.90;2.85;;;22.70;79.30;;;;;;4222738;27;20222;-73
2022/03/18 11:01:31;;;;;;;4.55;2.50;;;22.80;79.70;;;;;;4224751;27;20221;-73
2022/03/18 11:03:35;;;;;;;7.97;2.53;;;22.80;81.10;;;;;;4221527;27;20218;-74
2022/03/18 11:05:40;;;;;;;8.57;2.63;;;22.80;80.40;;;;;;4221064;27;20221;-74